Time;durP1;ratioP1;P1;durP2;ratioP2;P2;SDS_P1;SDS_P2;PMS_P1;PMS_P2;Temp;Humidity;BMP_temperature;BMP_pressure;BME280_temperature;BME280_humidity;BME280_pressure;Samples;Min_cycle;Max_cycle;Signal;HPM_P1;HPM_P2
2024/02/18 00:00:00;;;;;;;;;;;10.60;1.00;;;;;;5024353;28;19913;-85
2024/02/18 00:02:27;;;;;;;;;;;10.50;1.00;;;;;;5029334;28;19916;-85
2024/02/18 00:04:53;;;;;;;;;;;10.70;1.00;;;;;;5024033;28;19923;-85
2024/02/18 00:07:18;;;;;;;;;;;10.60;1.00;;;;;;5031613;28;19964;-85
2024/02/18 00:09:44;;;;;;;;;;;10.50;1.00;;;;;;5024219;28;19916;-84
2024/02/18 00:12:10;;;;;;;;;;;10.60;1.00;;;;;;5021176;28;19916;-84
2024/02/18 00:14:35;;;;;;;;;;;10.60;1.00;;;;;;5030263;28;20000;-85
2024/02/18 00:17:01;;;;;;;;;;;10.60;10.80;;;;;;5026050;28;19909;-84
2024/02/18 00:19:26;;;;;;;;;;;10.60;41.00;;;;;;5026416;28;19918;-86
2024/02/18 00:21:52;;;;;;;;;;;10.60;57.70;;;;;;5033358;28;19909;-87
2024/02/18 00:24:17;;;;;;;;;;;10.50;54.40;;;;;;5023661;28;19920;-83
2024/02/18 00:26:42;;;;;;;;;;;10.60;31.60;;;;;;5020675;28;20311;-84
2024/02/18 00:29:08;;;;;;;;;;;10.60;43.50;;;;;;5026057;28;19909;-85
2024/02/18 00:31:33;;;;;;;;;;;10.60;51.10;;;;;;5018733;28;19978;-82
2024/02/18 00:33:59;;;;;;;;;;;10.60;45.70;;;;;;5020045;28;19908;-84
2024/02/18 00:36:24;;;;;;;;;;;10.70;40.40;;;;;;5023512;28;19917;-86
2024/02/18 00:38:50;;;;;;;;;;;10.60;48.20;;;;;;5019373;28;20003;-83
2024/02/18 00:41:15;;;;;;;;;;;10.60;41.00;;;;;;5022953;28;19916;-84
2024/02/18 00:43:41;;;;;;;;;;;10.50;46.80;;;;;;5027475;28;19913;-86
2024/02/18 00:46:07;;;;;;;;;;;10.60;90.20;;;;;;5008528;28;20004;-85
2024/02/18 00:48:32;;;;;;;;;;;10.60;99.90;;;;;;5025435;28;20006;-84
2024/02/18 00:50:58;;;;;;;;;;;10.50;99.90;;;;;;5005721;28;19909;-84
2024/02/18 00:53:23;;;;;;;;;;;10.60;99.90;;;;;;5012610;28;19916;-84
2024/02/18 00:55:49;;;;;;;;;;;10.50;99.90;;;;;;5014322;28;20186;-83
2024/02/18 00:58:14;;;;;;;;;;;10.60;99.90;;;;;;5026966;28;19953;-83
2024/02/18 01:00:40;;;;;;;;;;;10.60;99.90;;;;;;5019662;28;19976;-83
2024/02/18 01:03:08;;;;;;;;;;;10.50;99.90;;;;;;5019828;28;19909;-83
2024/02/18 01:05:34;;;;;;;;;;;10.50;99.90;;;;;;5014988;28;19944;-84
2024/02/18 01:08:00;;;;;;;;;;;10.50;99.90;;;;;;5028399;28;19910;-83
2024/02/18 01:10:25;;;;;;;;;;;10.60;99.90;;;;;;5026967;28;19909;-85
2024/02/18 01:12:51;;;;;;;;;;;10.50;99.90;;;;;;5024320;28;19910;-85
2024/02/18 01:15:16;;;;;;;;;;;10.50;99.90;;;;;;5024418;28;19963;-83
2024/02/18 01:17:42;;;;;;;;;;;10.60;99.90;;;;;;5029400;28;20481;-83
2024/02/18 01:20:08;;;;;;;;;;;10.60;99.90;;;;;;5025507;28;19910;-84
2024/02/18 01:22:34;;;;;;;;;;;10.60;99.90;;;;;;5013617;28;19916;-84
2024/02/18 01:25:00;;;;;;;;;;;10.60;99.90;;;;;;5027231;28;20333;-83
2024/02/18 01:27:25;;;;;;;;;;;10.60;99.20;;;;;;5023772;28;19968;-85
2024/02/18 01:29:50;;;;;;;;;;;10.60;12.90;;;;;;5017426;28;19925;-84
2024/02/18 01:32:16;;;;;;;;;;;10.50;1.00;;;;;;5029991;28;19909;-83
2024/02/18 01:34:41;;;;;;;;;;;10.60;1.00;;;;;;5002239;28;19916;-85
2024/02/18 01:37:07;;;;;;;;;;;10.60;1.00;;;;;;5026220;28;19991;-84
2024/02/18 01:39:32;;;;;;;;;;;10.50;1.00;;;;;;5031415;28;20283;-83
2024/02/18 01:41:58;;;;;;;;;;;10.60;1.00;;;;;;5033526;28;19920;-84
2024/02/18 01:44:23;;;;;;;;;;;10.50;1.00;;;;;;5010747;28;19919;-84
2024/02/18 01:46:49;;;;;;;;;;;10.50;1.00;;;;;;5029396;28;19965;-83
2024/02/18 01:49:14;;;;;;;;;;;10.50;1.00;;;;;;5025318;28;19914;-84
2024/02/18 01:51:40;;;;;;;;;;;10.50;99.90;;;;;;5030736;28;19909;-84
2024/02/18 01:54:06;;;;;;;;;;;10.50;99.90;;;;;;5030105;28;19960;-82
2024/02/18 01:56:32;;;;;;;;;;;10.50;1.00;;;;;;5021464;28;20294;-83
2024/02/18 01:58:58;;;;;;;;;;;10.50;1.00;;;;;;5029038;28;19963;-83
2024/02/18 02:01:24;;;;;;;;;;;10.30;1.00;;;;;;5027197;28;19913;-85
2024/02/18 02:03:50;;;;;;;;;;;10.40;1.00;;;;;;5026341;28;20055;-85
2024/02/18 02:06:16;;;;;;;;;;;10.30;1.00;;;;;;5036236;28;19941;-84
2024/02/18 02:08:41;;;;;;;;;;;10.20;1.00;;;;;;5028060;28;19917;-84
2024/02/18 02:11:07;;;;;;;;;;;10.20;1.00;;;;;;5026391;28;19924;-82
2024/02/18 02:13:33;;;;;;;;;;;10.20;1.00;;;;;;5020602;28;20547;-83
2024/02/18 02:15:58;;;;;;;;;;;10.10;1.00;;;;;;5020973;28;19955;-84
2024/02/18 02:18:24;;;;;;;;;;;10.20;1.00;;;;;;5016022;28;19979;-84
2024/02/18 02:20:49;;;;;;;;;;;10.00;1.00;;;;;;5025667;28;19909;-84
2024/02/18 02:23:16;;;;;;;;;;;10.00;1.00;;;;;;5025995;28;19963;-83
2024/02/18 02:25:42;;;;;;;;;;;10.00;97.70;;;;;;5017188;28;19921;-83
2024/02/18 02:28:12;;;;;;;;;;;10.00;67.50;;;;;;5016970;28;19944;-84
2024/02/18 02:30:37;;;;;;;;;;;9.90;99.90;;;;;;5023394;28;19909;-82
2024/02/18 02:33:03;;;;;;;;;;;9.90;99.90;;;;;;5020424;28;19913;-83
2024/02/18 02:35:28;;;;;;;;;;;9.90;99.90;;;;;;5020445;28;19909;-84
2024/02/18 02:37:57;;;;;;;;;;;9.80;77.00;;;;;;5027419;28;19981;-85
2024/02/18 02:40:23;;;;;;;;;;;9.80;1.00;;;;;;5029866;28;20383;-86
2024/02/18 02:42:48;;;;;;;;;;;9.80;1.00;;;;;;5004723;28;19932;-85
2024/02/18 02:45:14;;;;;;;;;;;9.80;99.90;;;;;;5025723;28;19913;-85
2024/02/18 02:47:39;;;;;;;;;;;9.80;99.90;;;;;;5020152;28;20299;-85
2024/02/18 02:50:04;;;;;;;;;;;9.80;1.00;;;;;;5034050;28;19999;-85
2024/02/18 02:52:30;;;;;;;;;;;9.80;1.00;;;;;;5017559;28;19917;-85
2024/02/18 02:54:56;;;;;;;;;;;9.90;1.00;;;;;;5030499;28;19948;-84
2024/02/18 02:57:22;;;;;;;;;;;9.90;99.90;;;;;;5032427;28;19944;-86
2024/02/18 02:59:47;;;;;;;;;;;9.90;1.00;;;;;;5025107;28;19925;-84
2024/02/18 03:02:13;;;;;;;;;;;9.90;1.00;;;;;;5025057;28;19923;-85
2024/02/18 03:04:38;;;;;;;;;;;9.90;99.90;;;;;;5037035;28;19913;-86
2024/02/18 03:07:04;;;;;;;;;;;9.90;1.00;;;;;;5020842;28;19909;-85
2024/02/18 03:09:29;;;;;;;;;;;10.00;1.00;;;;;;5004758;28;19953;-84
2024/02/18 03:11:55;;;;;;;;;;;9.90;1.00;;;;;;5028072;28;19962;-85
2024/02/18 03:14:20;;;;;;;;;;;9.90;1.00;;;;;;5020723;28;19916;-84
2024/02/18 03:16:46;;;;;;;;;;;10.00;99.90;;;;;;5030652;28;19909;-86
2024/02/18 03:19:11;;;;;;;;;;;9.90;99.90;;;;;;5031051;28;20371;-85
2024/02/18 03:21:37;;;;;;;;;;;9.90;99.90;;;;;;5026797;28;19972;-85
2024/02/18 03:24:03;;;;;;;;;;;9.90;99.90;;;;;;5026471;28;19924;-84
2024/02/18 03:26:29;;;;;;;;;;;9.90;99.90;;;;;;5031650;28;19913;-84
2024/02/18 03:28:55;;;;;;;;;;;9.90;1.00;;;;;;5027965;28;19917;-83
2024/02/18 03:31:20;;;;;;;;;;;9.90;1.00;;;;;;5022178;28;19909;-83
2024/02/18 03:33:46;;;;;;;;;;;9.90;1.00;;;;;;5027492;28;20267;-86
2024/02/18 03:36:12;;;;;;;;;;;9.80;1.00;;;;;;5023868;28;19999;-84
2024/02/18 03:38:37;;;;;;;;;;;9.80;1.00;;;;;;5031250;28;19995;-84
2024/02/18 03:41:07;;;;;;;;;;;9.80;1.00;;;;;;5019566;28;20294;-84
2024/02/18 03:43:33;;;;;;;;;;;9.80;1.00;;;;;;5021351;28;20049;-84
2024/02/18 03:45:58;;;;;;;;;;;9.80;15.30;;;;;;5027710;28;19909;-85
2024/02/18 03:48:24;;;;;;;;;;;9.80;99.90;;;;;;5026514;28;19924;-83
2024/02/18 03:50:50;;;;;;;;;;;9.70;99.90;;;;;;5003101;28;19963;-84
2024/02/18 03:53:15;;;;;;;;;;;9.80;99.90;;;;;;5027987;28;19932;-84
2024/02/18 03:55:41;;;;;;;;;;;9.90;99.90;;;;;;5018247;28;19913;-85
2024/02/18 03:58:06;;;;;;;;;;;9.80;99.90;;;;;;5031572;28;19916;-83
2024/02/18 04:00:31;;;;;;;;;;;9.80;99.90;;;;;;5010864;28;19929;-82
2024/02/18 04:02:57;;;;;;;;;;;9.80;99.90;;;;;;5011327;28;19909;-85
2024/02/18 04:05:22;;;;;;;;;;;9.80;1.00;;;;;;5009672;28;20007;-84
2024/02/18 04:07:48;;;;;;;;;;;9.80;1.00;;;;;;5023405;28;19916;-83
2024/02/18 04:10:13;;;;;;;;;;;9.80;99.90;;;;;;5024571;28;19956;-85
2024/02/18 04:12:39;;;;;;;;;;;9.80;99.90;;;;;;5027504;28;19909;-83
2024/02/18 04:15:05;;;;;;;;;;;9.80;99.90;;;;;;5021459;28;20268;-84
2024/02/18 04:17:30;;;;;;;;;;;9.80;1.00;;;;;;5015955;28;20279;-86
2024/02/18 04:19:56;;;;;;;;;;;9.80;12.30;;;;;;5024304;28;19916;-85
2024/02/18 04:22:21;;;;;;;;;;;9.80;45.10;;;;;;5025388;28;19916;-84
2024/02/18 04:24:46;;;;;;;;;;;9.80;99.90;;;;;;5024848;28;19998;-85
2024/02/18 04:27:12;;;;;;;;;;;9.80;99.90;;;;;;5010975;28;19988;-84
2024/02/18 04:29:38;;;;;;;;;;;9.90;1.00;;;;;;5024102;28;20386;-85
2024/02/18 04:32:04;;;;;;;;;;;9.80;1.00;;;;;;5021490;28;19953;-85
2024/02/18 04:34:30;;;;;;;;;;;9.90;1.00;;;;;;5031387;28;19919;-85
2024/02/18 04:36:55;;;;;;;;;;;9.80;1.00;;;;;;5011189;28;19909;-86
2024/02/18 04:39:20;;;;;;;;;;;9.80;1.00;;;;;;5009571;28;19909;-83
2024/02/18 04:41:46;;;;;;;;;;;9.80;1.00;;;;;;5011643;28;19910;-85
2024/02/18 04:44:12;;;;;;;;;;;9.80;1.00;;;;;;5028799;28;19913;-83
2024/02/18 04:46:37;;;;;;;;;;;9.80;1.00;;;;;;5028901;28;20375;-86
2024/02/18 04:49:03;;;;;;;;;;;9.80;99.90;;;;;;5029598;28;19980;-85
2024/02/18 04:51:28;;;;;;;;;;;9.70;99.90;;;;;;5019654;28;19940;-85
2024/02/18 04:53:54;;;;;;;;;;;9.70;99.90;;;;;;5031876;28;19913;-85
2024/02/18 04:56:20;;;;;;;;;;;9.70;99.90;;;;;;5029219;28;20359;-83
2024/02/18 04:58:46;;;;;;;;;;;9.70;99.90;;;;;;5020075;28;19916;-83
2024/02/18 05:01:11;;;;;;;;;;;9.70;99.90;;;;;;5023962;28;19913;-84
2024/02/18 05:03:37;;;;;;;;;;;9.60;1.00;;;;;;5023045;28;20002;-83
2024/02/18 05:06:07;;;;;;;;;;;9.70;1.00;;;;;;5026570;28;19916;-83
2024/02/18 05:08:33;;;;;;;;;;;9.70;1.00;;;;;;5003250;28;20282;-85
2024/02/18 05:10:58;;;;;;;;;;;9.70;1.00;;;;;;5017722;28;19909;-83
2024/02/18 05:13:24;;;;;;;;;;;9.60;1.00;;;;;;5017325;28;19920;-84
2024/02/18 05:15:51;;;;;;;;;;;9.60;1.00;;;;;;5017879;28;20050;-83
2024/02/18 05:18:17;;;;;;;;;;;9.60;1.00;;;;;;5025749;28;19927;-84
2024/02/18 05:20:43;;;;;;;;;;;9.60;49.10;;;;;;5004277;28;19959;-83
2024/02/18 05:23:09;;;;;;;;;;;9.50;99.90;;;;;;5019099;28;19913;-83
2024/02/18 05:25:36;;;;;;;;;;;9.50;99.90;;;;;;5025702;28;19919;-82
2024/02/18 05:28:02;;;;;;;;;;;9.50;99.90;;;;;;5024976;28;20344;-84
2024/02/18 05:30:27;;;;;;;;;;;9.50;99.90;;;;;;5025613;28;19910;-83
2024/02/18 05:32:52;;;;;;;;;;;9.50;1.00;;;;;;5016986;28;19910;-83
2024/02/18 05:35:18;;;;;;;;;;;9.50;1.00;;;;;;5022091;28;21765;-84
2024/02/18 05:37:43;;;;;;;;;;;9.60;1.00;;;;;;5030045;28;19913;-83
2024/02/18 05:40:09;;;;;;;;;;;9.50;1.00;;;;;;5030738;28;19915;-85
2024/02/18 05:42:34;;;;;;;;;;;9.50;1.00;;;;;;5027267;28;19916;-84
2024/02/18 05:45:00;;;;;;;;;;;9.50;1.00;;;;;;5024116;28;19913;-86
2024/02/18 05:47:25;;;;;;;;;;;9.50;1.00;;;;;;5021676;28;20004;-84
2024/02/18 05:49:51;;;;;;;;;;;9.50;93.40;;;;;;5008538;28;19916;-84
2024/02/18 05:52:16;;;;;;;;;;;9.50;99.90;;;;;;5027944;28;19940;-86
2024/02/18 05:54:42;;;;;;;;;;;9.50;99.90;;;;;;5028895;28;20006;-84
2024/02/18 05:57:08;;;;;;;;;;;9.60;99.90;;;;;;5031194;28;19944;-83
2024/02/18 05:59:34;;;;;;;;;;;9.50;99.90;;;;;;5031498;28;19924;-84
2024/02/18 06:01:59;;;;;;;;;;;9.60;99.90;;;;;;5024576;28;19909;-83
2024/02/18 06:04:25;;;;;;;;;;;9.50;99.90;;;;;;5029737;28;20006;-83
2024/02/18 06:06:50;;;;;;;;;;;9.50;99.90;;;;;;5029354;28;19924;-84
2024/02/18 06:09:16;;;;;;;;;;;9.60;99.90;;;;;;5025085;28;20419;-84
2024/02/18 06:11:41;;;;;;;;;;;9.50;99.90;;;;;;5006771;28;19921;-85
2024/02/18 06:14:07;;;;;;;;;;;9.50;99.90;;;;;;5019079;28;19909;-82
2024/02/18 06:16:33;;;;;;;;;;;9.50;99.90;;;;;;5020297;28;19909;-83
2024/02/18 06:18:58;;;;;;;;;;;9.50;99.90;;;;;;5006409;28;19909;-85
2024/02/18 06:21:24;;;;;;;;;;;9.60;99.90;;;;;;5030427;28;19927;-85
2024/02/18 06:23:55;;;;;;;;;;;9.60;99.90;;;;;;5028838;28;19917;-83
2024/02/18 06:26:21;;;;;;;;;;;9.60;99.90;;;;;;5020982;28;19909;-82
2024/02/18 06:28:47;;;;;;;;;;;9.60;99.90;;;;;;5018690;28;19916;-84
2024/02/18 06:31:12;;;;;;;;;;;9.60;99.90;;;;;;5018089;28;19909;-85
2024/02/18 06:33:38;;;;;;;;;;;9.50;99.90;;;;;;5019052;28;19916;-82
2024/02/18 06:36:03;;;;;;;;;;;9.60;99.90;;;;;;5019026;28;19984;-84
2024/02/18 06:38:29;;;;;;;;;;;9.60;99.90;;;;;;5020302;28;20338;-85
2024/02/18 06:40:54;;;;;;;;;;;9.50;73.50;;;;;;5021196;28;19960;-83
2024/02/18 06:43:20;;;;;;;;;;;9.60;1.00;;;;;;5017085;28;19959;-84
2024/02/18 06:45:45;;;;;;;;;;;9.70;1.00;;;;;;5023966;28;19963;-84
2024/02/18 06:48:11;;;;;;;;;;;9.70;1.00;;;;;;5025032;28;19910;-83
2024/02/18 06:50:36;;;;;;;;;;;9.70;99.90;;;;;;5016364;28;19932;-83
2024/02/18 06:53:02;;;;;;;;;;;9.70;99.90;;;;;;5019536;28;19909;-83
2024/02/18 06:55:27;;;;;;;;;;;9.70;99.90;;;;;;5015527;28;20359;-83
2024/02/18 06:57:53;;;;;;;;;;;9.70;54.10;;;;;;5019225;28;19991;-83
2024/02/18 07:00:21;;;;;;;;;;;9.70;1.00;;;;;;5017724;28;20294;-85
2024/02/18 07:02:47;;;;;;;;;;;9.80;1.00;;;;;;5023427;28;19916;-82
2024/02/18 07:05:12;;;;;;;;;;;9.80;1.00;;;;;;5016928;28;19913;-83
2024/02/18 07:07:37;;;;;;;;;;;9.90;99.90;;;;;;5012736;28;19917;-84
2024/02/18 07:10:03;;;;;;;;;;;9.90;1.00;;;;;;5012617;28;19932;-84
2024/02/18 07:12:29;;;;;;;;;;;10.00;99.90;;;;;;5024373;28;20007;-86
2024/02/18 07:14:54;;;;;;;;;;;10.00;99.90;;;;;;5024327;28;20068;-84
2024/02/18 07:17:20;;;;;;;;;;;10.00;99.90;;;;;;5024009;28;19916;-83
2024/02/18 07:19:46;;;;;;;;;;;10.00;99.90;;;;;;5019114;28;19948;-84
2024/02/18 07:22:15;;;;;;;;;;;10.00;99.90;;;;;;5018655;28;19997;-83
2024/02/18 07:24:41;;;;;;;;;;;10.00;1.00;;;;;;5023016;28;19921;-83
2024/02/18 07:27:06;;;;;;;;;;;10.00;99.90;;;;;;5023965;28;19910;-84
2024/02/18 07:29:32;;;;;;;;;;;10.00;99.90;;;;;;5025345;28;20382;-85
2024/02/18 07:31:57;;;;;;;;;;;10.00;1.00;;;;;;5015627;28;19956;-84
2024/02/18 07:34:23;;;;;;;;;;;10.00;99.90;;;;;;5018910;28;19916;-84
2024/02/18 07:36:48;;;;;;;;;;;9.90;1.00;;;;;;5016969;28;19916;-84
2024/02/18 07:39:14;;;;;;;;;;;10.00;1.00;;;;;;5000825;28;20248;-83
2024/02/18 07:41:39;;;;;;;;;;;10.10;1.00;;;;;;5020935;28;20426;-83
2024/02/18 07:44:05;;;;;;;;;;;10.00;1.00;;;;;;5021658;28;19920;-84
2024/02/18 07:46:31;;;;;;;;;;;10.00;27.00;;;;;;5009917;28;19979;-83
2024/02/18 07:48:56;;;;;;;;;;;10.00;99.90;;;;;;5028987;28;19917;-83
2024/02/18 07:51:22;;;;;;;;;;;10.00;1.00;;;;;;5021770;28;19917;-85
2024/02/18 07:53:47;;;;;;;;;;;10.00;1.00;;;;;;5033220;28;19909;-86
2024/02/18 07:56:14;;;;;;;;;;;9.90;99.90;;;;;;5026815;28;19916;-83
2024/02/18 07:58:39;;;;;;;;;;;9.90;99.90;;;;;;5026521;28;19913;-85
2024/02/18 08:01:05;;;;;;;;;;;9.80;99.90;;;;;;5025734;28;19917;-84
2024/02/18 08:03:30;;;;;;;;;;;9.90;99.90;;;;;;5031547;28;20327;-83
2024/02/18 08:05:56;;;;;;;;;;;9.90;99.90;;;;;;5023365;28;19914;-85
2024/02/18 08:08:22;;;;;;;;;;;9.90;99.90;;;;;;5024884;28;19916;-84
2024/02/18 08:10:48;;;;;;;;;;;9.90;99.90;;;;;;5011514;28;19917;-86
2024/02/18 08:13:13;;;;;;;;;;;9.80;99.90;;;;;;5030641;28;19913;-84
2024/02/18 08:15:39;;;;;;;;;;;9.80;99.90;;;;;;5023634;28;19909;-83
2024/02/18 08:18:04;;;;;;;;;;;9.80;99.90;;;;;;5021601;28;19916;-83
2024/02/18 08:20:30;;;;;;;;;;;9.90;99.90;;;;;;5019830;28;20406;-84
2024/02/18 08:22:55;;;;;;;;;;;9.90;99.90;;;;;;5008824;28;19917;-84
2024/02/18 08:25:21;;;;;;;;;;;9.90;99.90;;;;;;5023041;28;19993;-84
2024/02/18 08:27:46;;;;;;;;;;;9.90;99.90;;;;;;5021266;28;19909;-83
2024/02/18 08:30:12;;;;;;;;;;;9.90;99.90;;;;;;5025929;28;19916;-83
2024/02/18 08:32:38;;;;;;;;;;;10.00;99.90;;;;;;5020449;28;19955;-83
2024/02/18 08:35:07;;;;;;;;;;;10.00;15.80;;;;;;5022914;28;20338;-83
2024/02/18 08:37:32;;;;;;;;;;;10.10;1.00;;;;;;5020232;28;19916;-84
2024/02/18 08:39:57;;;;;;;;;;;10.10;1.00;;;;;;5024731;28;19937;-84
2024/02/18 08:42:23;;;;;;;;;;;10.20;1.00;;;;;;5025262;28;20453;-86
2024/02/18 08:44:48;;;;;;;;;;;10.10;1.00;;;;;;5029682;28;19980;-85
2024/02/18 08:47:14;;;;;;;;;;;10.20;1.00;;;;;;5020997;28;19913;-83
2024/02/18 08:49:43;;;;;;;;;;;10.20;99.90;;;;;;5025854;28;19916;-85
2024/02/18 08:52:08;;;;;;;;;;;10.30;99.90;;;;;;5033955;28;19909;-83
2024/02/18 08:54:34;;;;;;;;;;;10.30;99.90;;;;;;5030778;28;19913;-84
2024/02/18 08:57:00;;;;;;;;;;;10.30;1.00;;;;;;5028367;28;19910;-84
2024/02/18 08:59:26;;;;;;;;;;;10.40;36.70;;;;;;5024828;28;20563;-83
2024/02/18 09:01:57;;;;;;;;;;;10.40;99.90;;;;;;5025759;28;19909;-85
2024/02/18 09:04:23;;;;;;;;;;;10.50;99.90;;;;;;5020683;28;19960;-85
2024/02/18 09:06:49;;;;;;;;;;;10.50;1.00;;;;;;5026491;28;19996;-85
2024/02/18 09:09:14;;;;;;;;;;;10.50;1.00;;;;;;5025324;28;19932;-84
2024/02/18 09:11:42;;;;;;;;;;;10.60;1.00;;;;;;5029409;28;19909;-86
2024/02/18 09:14:08;;;;;;;;;;;10.50;1.00;;;;;;5031026;28;20306;-84
2024/02/18 09:16:33;;;;;;;;;;;10.50;1.00;;;;;;5014695;28;19913;-84
2024/02/18 09:18:59;;;;;;;;;;;10.50;1.00;;;;;;5024708;28;19924;-85
2024/02/18 09:21:24;;;;;;;;;;;10.50;1.00;;;;;;5031683;28;19940;-85
2024/02/18 09:23:50;;;;;;;;;;;10.50;1.00;;;;;;5028382;28;20406;-84
2024/02/18 09:26:15;;;;;;;;;;;10.50;98.40;;;;;;5015718;28;20276;-85
2024/02/18 09:28:41;;;;;;;;;;;10.60;1.00;;;;;;5023312;28;19939;-84
2024/02/18 09:31:08;;;;;;;;;;;10.50;99.90;;;;;;5017446;28;19916;-84
2024/02/18 09:33:34;;;;;;;;;;;10.50;99.90;;;;;;5014246;28;19951;-82
2024/02/18 09:36:00;;;;;;;;;;;10.50;99.90;;;;;;5005383;28;19957;-84
2024/02/18 09:38:27;;;;;;;;;;;10.50;1.00;;;;;;5017800;28;19909;-86
2024/02/18 09:40:54;;;;;;;;;;;10.50;1.00;;;;;;5018482;28;19909;-82
2024/02/18 09:43:21;;;;;;;;;;;10.50;1.00;;;;;;5025328;28;19909;-83
2024/02/18 09:45:48;;;;;;;;;;;10.50;1.00;;;;;;5023693;28;19999;-81
2024/02/18 09:48:15;;;;;;;;;;;10.50;1.00;;;;;;5029376;28;19919;-83
2024/02/18 09:50:40;;;;;;;;;;;10.60;1.00;;;;;;5020838;28;19917;-83
2024/02/18 09:53:07;;;;;;;;;;;10.60;29.00;;;;;;5025510;28;19909;-83
2024/02/18 09:55:32;;;;;;;;;;;10.60;99.90;;;;;;5008750;28;19962;-83
2024/02/18 09:57:58;;;;;;;;;;;10.60;99.90;;;;;;5028350;28;20286;-83
2024/02/18 10:00:25;;;;;;;;;;;10.60;99.90;;;;;;5004346;28;19917;-84
2024/02/18 10:02:51;;;;;;;;;;;10.60;99.90;;;;;;5024041;28;20036;-86
2024/02/18 10:05:17;;;;;;;;;;;10.60;99.90;;;;;;5030216;28;19913;-82
2024/02/18 10:07:42;;;;;;;;;;;10.60;99.90;;;;;;5023666;28;19909;-82
2024/02/18 10:10:08;;;;;;;;;;;10.60;99.90;;;;;;5019271;28;19956;-83
2024/02/18 10:12:34;;;;;;;;;;;10.70;99.90;;;;;;5025818;28;19928;-84
2024/02/18 10:15:03;;;;;;;;;;;10.70;99.90;;;;;;5005178;28;19913;-84
2024/02/18 10:17:28;;;;;;;;;;;10.70;99.90;;;;;;5002266;28;19906;-84
2024/02/18 10:19:54;;;;;;;;;;;10.70;99.90;;;;;;5026129;28;20429;-84
2024/02/18 10:22:24;;;;;;;;;;;10.70;99.90;;;;;;5007797;28;20675;-86
2024/02/18 10:24:50;;;;;;;;;;;10.80;1.00;;;;;;5024655;28;19936;-83
2024/02/18 10:27:16;;;;;;;;;;;10.80;99.90;;;;;;5033943;28;19948;-84
2024/02/18 10:29:42;;;;;;;;;;;10.70;99.90;;;;;;5029693;28;19932;-85
2024/02/18 10:32:08;;;;;;;;;;;10.70;1.00;;;;;;5025741;28;19941;-84
2024/02/18 10:34:34;;;;;;;;;;;10.70;1.00;;;;;;5029831;28;19960;-85
2024/02/18 10:37:05;;;;;;;;;;;10.60;1.00;;;;;;5029564;28;19909;-85
2024/02/18 10:39:32;;;;;;;;;;;10.60;1.00;;;;;;5015571;28;19917;-83
2024/02/18 10:42:09;;;;;;;;;;;10.60;1.00;;;;;;5018749;28;19917;-83
2024/02/18 10:44:36;;;;;;;;;;;10.50;1.00;;;;;;5029474;28;20348;-83
2024/02/18 10:47:02;;;;;;;;;;;10.40;1.00;;;;;;5006253;28;19913;-84
2024/02/18 10:49:32;;;;;;;;;;;10.30;1.00;;;;;;5023758;28;19909;-83
2024/02/18 10:52:24;;;;;;;;;;;10.30;1.00;;;;;;5026438;28;19909;-83
2024/02/18 10:55:00;;;;;;;;;;;10.30;1.00;;;;;;5021579;28;19909;-83
2024/02/18 10:57:26;;;;;;;;;;;10.40;1.00;;;;;;5026311;28;19913;-84
2024/02/18 10:59:59;;;;;;;;;;;10.40;1.00;;;;;;5028074;28;19913;-83
2024/02/18 11:02:28;;;;;;;;;;;10.50;1.00;;;;;;5008607;28;20314;-83
2024/02/18 11:04:54;;;;;;;;;;;10.50;1.00;;;;;;5013198;28;20008;-83
2024/02/18 11:07:19;;;;;;;;;;;10.60;1.00;;;;;;5015598;28;19995;-83
2024/02/18 11:09:46;;;;;;;;;;;10.70;1.00;;;;;;5024093;28;20066;-85
2024/02/18 11:12:13;;;;;;;;;;;10.80;1.00;;;;;;5026895;28;19912;-82
2024/02/18 11:14:38;;;;;;;;;;;10.90;1.00;;;;;;5014609;28;20018;-82
2024/02/18 11:17:04;;;;;;;;;;;10.90;1.00;;;;;;5026184;28;20329;-82
2024/02/18 11:19:31;;;;;;;;;;;10.90;1.00;;;;;;5019081;28;19905;-83
2024/02/18 11:21:57;;;;;;;;;;;10.90;1.00;;;;;;5022569;28;19909;-83
2024/02/18 11:24:23;;;;;;;;;;;10.90;1.00;;;;;;5012124;28;19915;-83
2024/02/18 11:26:49;;;;;;;;;;;10.90;1.00;;;;;;5018198;28;19909;-83
2024/02/18 11:29:15;;;;;;;;;;;10.90;1.00;;;;;;5024419;28;19909;-84
2024/02/18 11:31:42;;;;;;;;;;;10.90;1.00;;;;;;5016366;28;19940;-83
2024/02/18 11:34:08;;;;;;;;;;;10.90;1.00;;;;;;5028749;28;19927;-83
2024/02/18 11:36:39;;;;;;;;;;;10.90;1.00;;;;;;5023396;28;19958;-84
2024/02/18 11:39:06;;;;;;;;;;;11.00;1.00;;;;;;5018516;28;19911;-84
2024/02/18 11:41:33;;;;;;;;;;;11.00;1.00;;;;;;5012597;28;20495;-83
2024/02/18 11:44:19;;;;;;;;;;;10.90;1.00;;;;;;5020299;28;19912;-85
2024/02/18 11:46:49;;;;;;;;;;;10.90;1.00;;;;;;5029499;28;19915;-86
2024/02/18 11:49:14;;;;;;;;;;;10.90;1.00;;;;;;5026402;28;19963;-85
2024/02/18 11:51:40;;;;;;;;;;;10.90;99.90;;;;;;5031107;28;19909;-84
2024/02/18 11:54:05;;;;;;;;;;;10.80;99.90;;;;;;5006149;28;19917;-85
2024/02/18 11:56:31;;;;;;;;;;;10.80;99.90;;;;;;5026794;28;19935;-84
2024/02/18 11:58:57;;;;;;;;;;;10.80;1.00;;;;;;5009775;28;19928;-84
2024/02/18 12:01:26;;;;;;;;;;;10.80;1.00;;;;;;5023197;28;20056;-84
2024/02/18 12:03:53;;;;;;;;;;;10.70;1.00;;;;;;5038451;28;19917;-85
2024/02/18 12:06:19;;;;;;;;;;;10.80;99.90;;;;;;5022262;28;19956;-85
2024/02/18 12:08:44;;;;;;;;;;;10.80;1.00;;;;;;5032065;28;19910;-83
2024/02/18 12:11:10;;;;;;;;;;;10.80;1.00;;;;;;5024047;28;20272;-84
2024/02/18 12:13:35;;;;;;;;;;;10.70;99.90;;;;;;5019965;28;19963;-84
2024/02/18 12:16:01;;;;;;;;;;;10.70;99.90;;;;;;5020480;28;19917;-85
2024/02/18 12:18:27;;;;;;;;;;;10.60;99.90;;;;;;5028180;28;20386;-84
2024/02/18 12:20:55;;;;;;;;;;;10.60;99.90;;;;;;5025651;28;19956;-86
2024/02/18 12:23:22;;;;;;;;;;;10.60;99.90;;;;;;5026163;28;19909;-84
2024/02/18 12:25:47;;;;;;;;;;;10.50;99.90;;;;;;5025326;28;19918;-83
2024/02/18 12:28:13;;;;;;;;;;;10.50;99.90;;;;;;5027233;28;19913;-84
2024/02/18 12:30:39;;;;;;;;;;;10.50;99.90;;;;;;5021674;28;19917;-83
2024/02/18 12:33:04;;;;;;;;;;;10.30;99.90;;;;;;5021816;28;20371;-84
2024/02/18 12:35:31;;;;;;;;;;;10.40;99.90;;;;;;5012729;28;19923;-83
2024/02/18 12:37:56;;;;;;;;;;;10.40;1.00;;;;;;5025528;28;19917;-83
2024/02/18 12:40:23;;;;;;;;;;;10.40;99.90;;;;;;5027229;28;19913;-82
2024/02/18 12:42:48;;;;;;;;;;;10.50;99.90;;;;;;5018326;28;19992;-82
2024/02/18 12:45:20;;;;;;;;;;;10.40;1.00;;;;;;5027569;28;19952;-83
2024/02/18 12:47:45;;;;;;;;;;;10.40;1.00;;;;;;5030049;28;19994;-84
2024/02/18 12:50:11;;;;;;;;;;;10.20;1.00;;;;;;5014189;28;19913;-83
2024/02/18 12:52:41;;;;;;;;;;;10.30;1.00;;;;;;5024476;28;19997;-83
2024/02/18 12:55:06;;;;;;;;;;;10.20;1.00;;;;;;5016664;28;19909;-83
2024/02/18 12:57:32;;;;;;;;;;;10.10;1.00;;;;;;5010979;28;20342;-86
2024/02/18 12:59:57;;;;;;;;;;;10.10;1.00;;;;;;5022629;28;20023;-84
2024/02/18 13:02:23;;;;;;;;;;;10.10;1.00;;;;;;5033718;28;20387;-84
2024/02/18 13:04:53;;;;;;;;;;;9.90;1.00;;;;;;5026194;28;20276;-84
2024/02/18 13:07:20;;;;;;;;;;;10.00;1.00;;;;;;5018773;28;20000;-85
2024/02/18 13:09:46;;;;;;;;;;;10.00;1.00;;;;;;5031398;28;19912;-83
2024/02/18 13:12:11;;;;;;;;;;;10.00;1.00;;;;;;5012428;28;19911;-83
2024/02/18 13:14:41;;;;;;;;;;;10.00;1.00;;;;;;5016313;28;19909;-85
2024/02/18 13:17:07;;;;;;;;;;;10.10;1.00;;;;;;5021872;28;20413;-85
2024/02/18 13:19:32;;;;;;;;;;;10.10;1.00;;;;;;5027811;28;19913;-83
2024/02/18 13:21:58;;;;;;;;;;;10.20;1.00;;;;;;5024462;28;19936;-86
2024/02/18 13:24:23;;;;;;;;;;;10.10;1.00;;;;;;5018580;28;20395;-85
2024/02/18 13:26:51;;;;;;;;;;;10.10;1.00;;;;;;5020150;28;20346;-85
2024/02/18 13:29:17;;;;;;;;;;;10.00;1.00;;;;;;5030815;28;20015;-86
2024/02/18 13:31:43;;;;;;;;;;;10.10;1.00;;;;;;5023419;28;19921;-85
2024/02/18 13:34:09;;;;;;;;;;;10.00;1.00;;;;;;5003091;28;19917;-85
2024/02/18 13:36:39;;;;;;;;;;;10.00;1.00;;;;;;5027602;28;19916;-84
2024/02/18 13:39:54;;;;;;;;;;;10.10;1.00;;;;;;5082042;27;19916;-84
2024/02/18 13:42:19;;;;;;;;;;;10.10;1.00;;;;;;5077462;28;20007;-83
2024/02/18 13:44:45;;;;;;;;;;;10.10;1.00;;;;;;5085403;28;19913;-83
2024/02/18 13:47:12;;;;;;;;;;;10.10;1.00;;;;;;5089486;28;19915;-84
2024/02/18 13:49:37;;;;;;;;;;;9.90;1.00;;;;;;5075948;28;19917;-84
2024/02/18 13:52:03;;;;;;;;;;;10.00;1.00;;;;;;5085827;28;19934;-85
2024/02/18 13:54:28;;;;;;;;;;;10.00;1.00;;;;;;5087107;28;19913;-84
2024/02/18 13:56:54;;;;;;;;;;;10.00;1.00;;;;;;5080142;28;19913;-84
2024/02/18 13:59:19;;;;;;;;;;;10.00;1.00;;;;;;5090809;28;19923;-84
2024/02/18 14:01:45;;;;;;;;;;;10.00;1.00;;;;;;5081697;28;19964;-86
2024/02/18 14:04:11;;;;;;;;;;;10.00;1.00;;;;;;5072986;28;20359;-84
2024/02/18 14:06:38;;;;;;;;;;;10.00;1.00;;;;;;5079204;28;19935;-83
2024/02/18 14:09:06;;;;;;;;;;;10.20;1.00;;;;;;5080752;28;19951;-85
2024/02/18 14:11:31;;;;;;;;;;;10.20;1.00;;;;;;5075974;28;19916;-85
2024/02/18 14:13:57;;;;;;;;;;;10.20;1.00;;;;;;5089399;28;21522;-82
2024/02/18 14:16:25;;;;;;;;;;;10.30;1.00;;;;;;5076319;28;19919;-85
2024/02/18 14:18:51;;;;;;;;;;;10.30;1.00;;;;;;5083079;28;19916;-84
2024/02/18 14:21:17;;;;;;;;;;;10.20;1.00;;;;;;5079735;28;19921;-84